Time;durP1;ratioP1;P1;durP2;ratioP2;P2;SDS_P1;SDS_P2;PMS_P1;PMS_P2;Temp;Humidity;BMP_temperature;BMP_pressure;BME280_temperature;BME280_humidity;BME280_pressure;Samples;Min_cycle;Max_cycle;Signal;HPM_P1;HPM_P2
2021/12/31 00:01:09;;;;;;;21.40;17.30;;;12.40;99.90;;;;;;4913213;29;20410;-84
2021/12/31 00:03:35;;;;;;;23.48;17.98;;;12.40;99.90;;;;;;4896761;29;20499;-83
2021/12/31 00:06:01;;;;;;;21.97;18.37;;;12.30;99.90;;;;;;4914141;29;20490;-84
2021/12/31 00:08:26;;;;;;;21.10;17.37;;;12.30;99.90;;;;;;4911717;29;20759;-82
2021/12/31 00:10:59;;;;;;;20.33;17.10;;;12.30;99.90;;;;;;4895798;29;20406;-84
2021/12/31 00:13:25;;;;;;;22.27;18.10;;;12.40;99.90;;;;;;4896000;29;20426;-83
2021/12/31 00:15:51;;;;;;;24.98;18.15;;;12.30;99.90;;;;;;4914552;29;20428;-83
2021/12/31 00:18:17;;;;;;;24.58;18.88;;;12.30;99.90;;;;;;4913543;29;20956;-83
2021/12/31 00:20:42;;;;;;;24.00;19.40;;;12.30;99.90;;;;;;4914418;29;20398;-83
2021/12/31 00:23:10;;;;;;;25.55;19.75;;;12.30;99.90;;;;;;4912939;29;20403;-83
2021/12/31 00:25:40;;;;;;;26.10;20.35;;;12.30;99.90;;;;;;4895783;29;20789;-84
2021/12/31 00:28:06;;;;;;;26.05;20.50;;;12.30;99.90;;;;;;4895979;29;20995;-83
2021/12/31 00:30:33;;;;;;;28.20;20.20;;;12.30;99.90;;;;;;4913797;29;20403;-83
2021/12/31 00:33:01;;;;;;;28.58;21.27;;;12.40;99.90;;;;;;4913468;29;20379;-82
2021/12/31 00:35:27;;;;;;;26.80;21.33;;;12.40;99.90;;;;;;4913813;29;20455;-83
2021/12/31 00:37:52;;;;;;;27.63;21.35;;;12.40;99.90;;;;;;4895582;29;20423;-83
2021/12/31 00:40:18;;;;;;;30.35;21.08;;;12.30;99.90;;;;;;4912740;29;21263;-82
2021/12/31 00:42:45;;;;;;;26.35;21.20;;;12.40;99.90;;;;;;4912937;29;21081;-83
2021/12/31 00:45:13;;;;;;;29.55;23.08;;;12.40;99.90;;;;;;4896489;29;20387;-83
2021/12/31 00:47:39;;;;;;;31.30;22.92;;;12.30;99.90;;;;;;4896215;29;20455;-82
2021/12/31 00:50:05;;;;;;;27.83;22.83;;;12.40;99.90;;;;;;4897263;29;20455;-83
2021/12/31 00:52:31;;;;;;;27.80;22.77;;;12.40;99.90;;;;;;4890450;29;20442;-83
2021/12/31 00:54:57;;;;;;;26.37;22.17;;;12.40;99.90;;;;;;4896229;29;20406;-82
2021/12/31 00:57:23;;;;;;;27.73;21.67;;;12.40;99.90;;;;;;4896108;29;20392;-83
2021/12/31 00:59:48;;;;;;;26.45;21.42;;;12.50;99.90;;;;;;4910980;29;20988;-82
2021/12/31 01:02:16;;;;;;;25.77;22.47;;;12.50;99.90;;;;;;4896478;29;20969;-83
2021/12/31 01:04:42;;;;;;;26.83;21.98;;;12.50;99.90;;;;;;4911678;29;20447;-83
2021/12/31 01:07:09;;;;;;;29.08;21.63;;;12.50;99.90;;;;;;4912365;29;20510;-83
2021/12/31 01:09:35;;;;;;;26.45;21.77;;;12.50;99.90;;;;;;4912765;29;20399;-82
2021/12/31 01:12:02;;;;;;;28.67;21.77;;;12.50;99.90;;;;;;4912951;29;20791;-84
2021/12/31 01:17:05;;;;;;;24.73;20.65;;;12.50;99.90;;;;;;4913009;29;20938;-82
2021/12/31 01:19:46;;;;;;;23.92;20.45;;;12.50;99.90;;;;;;4911859;29;20426;-82
2021/12/31 01:22:28;;;;;;;26.10;21.38;;;12.50;99.90;;;;;;4911305;29;20953;-83
2021/12/31 01:24:53;;;;;;;25.37;19.97;;;12.50;99.90;;;;;;4893818;29;20506;-83
2021/12/31 01:27:19;;;;;;;26.33;20.40;;;12.50;99.90;;;;;;4911527;29;20572;-82
2021/12/31 01:29:45;;;;;;;23.67;20.42;;;12.50;99.90;;;;;;4894750;29;20442;-82
2021/12/31 01:32:11;;;;;;;25.70;20.47;;;12.50;99.90;;;;;;4911895;29;20443;-83
2021/12/31 01:34:38;;;;;;;26.02;19.92;;;12.50;99.90;;;;;;4912378;29;20400;-83
2021/12/31 01:37:04;;;;;;;24.00;20.15;;;12.50;99.90;;;;;;4895286;29;20799;-83
2021/12/31 01:39:30;;;;;;;24.48;20.05;;;12.50;99.90;;;;;;4912860;29;20874;-84
2021/12/31 01:41:58;;;;;;;20.35;17.33;;;12.40;99.90;;;;;;4912746;29;20482;-82
2021/12/31 01:44:35;;;;;;;18.52;16.50;;;12.50;99.90;;;;;;4912734;29;20869;-83
2021/12/31 01:47:11;;;;;;;16.25;14.52;;;12.50;99.90;;;;;;4911763;29;20403;-83
2021/12/31 01:49:39;;;;;;;15.10;13.50;;;12.60;99.90;;;;;;4893684;29;20415;-84
2021/12/31 01:52:07;;;;;;;14.57;13.18;;;12.70;99.90;;;;;;4913476;29;21217;-83
2021/12/31 01:54:34;;;;;;;13.70;12.35;;;12.70;99.90;;;;;;4899546;29;20479;-81
2021/12/31 01:57:02;;;;;;;13.07;11.70;;;12.80;99.90;;;;;;4902588;29;20787;-83
2021/12/31 01:59:28;;;;;;;13.60;12.17;;;12.80;99.90;;;;;;4915741;29;20922;-84
2021/12/31 02:01:55;;;;;;;13.15;11.85;;;12.80;99.90;;;;;;4896026;29;20897;-83
2021/12/31 02:04:21;;;;;;;13.82;11.60;;;12.80;99.90;;;;;;4912668;29;20436;-84
2021/12/31 02:06:47;;;;;;;13.30;10.80;;;12.80;99.90;;;;;;4913221;29;20475;-83
2021/12/31 02:09:13;;;;;;;12.73;11.45;;;12.70;99.90;;;;;;4896307;29;20449;-82
2021/12/31 02:11:39;;;;;;;11.60;10.40;;;12.80;99.90;;;;;;4895844;29;20944;-82
2021/12/31 02:14:05;;;;;;;11.40;10.20;;;12.70;99.90;;;;;;4912557;29;20862;-83
2021/12/31 02:16:32;;;;;;;12.18;10.30;;;12.80;99.90;;;;;;4896111;29;20403;-84
2021/12/31 02:19:26;;;;;;;11.30;9.90;;;12.80;99.90;;;;;;4913390;29;20411;-82
2021/12/31 02:21:55;;;;;;;12.25;10.05;;;12.80;99.90;;;;;;4895554;29;20434;-83
2021/12/31 02:24:22;;;;;;;10.88;9.73;;;12.80;99.90;;;;;;4912096;29;20407;-83
2021/12/31 02:26:48;;;;;;;11.27;9.30;;;12.90;99.90;;;;;;4895681;29;20528;-82
2021/12/31 02:29:14;;;;;;;10.52;9.52;;;12.90;99.90;;;;;;4914930;29;20503;-83
2021/12/31 02:31:39;;;;;;;11.70;9.40;;;12.90;99.90;;;;;;4898218;29;20442;-83
2021/12/31 02:34:05;;;;;;;11.93;10.25;;;12.90;99.90;;;;;;4896564;29;20498;-82
2021/12/31 02:36:30;;;;;;;11.87;10.00;;;12.90;99.90;;;;;;4894412;29;20886;-83
2021/12/31 02:38:57;;;;;;;10.83;9.77;;;12.90;99.90;;;;;;4912390;29;20415;-82
2021/12/31 02:41:23;;;;;;;11.70;9.75;;;12.90;99.90;;;;;;4895604;29;20407;-82
2021/12/31 02:43:49;;;;;;;11.20;10.10;;;12.90;99.90;;;;;;4896245;29;20762;-83
2021/12/31 02:46:14;;;;;;;12.33;10.20;;;12.90;99.90;;;;;;4896433;29;20463;-82
2021/12/31 02:48:40;;;;;;;11.90;10.27;;;12.90;99.90;;;;;;4896806;29;20404;-81
2021/12/31 02:51:06;;;;;;;13.52;10.57;;;12.90;99.90;;;;;;4901391;29;20399;-82
2021/12/31 02:53:43;;;;;;;11.87;10.53;;;12.80;99.90;;;;;;4917189;29;20407;-82
2021/12/31 02:56:13;;;;;;;11.65;10.55;;;12.80;99.90;;;;;;4897680;29;20406;-82
2021/12/31 02:58:40;;;;;;;11.73;10.43;;;12.90;99.90;;;;;;4918521;29;20412;-82
2021/12/31 03:01:07;;;;;;;11.85;10.75;;;12.90;99.90;;;;;;4902549;29;20879;-82
2021/12/31 03:03:35;;;;;;;13.38;11.38;;;12.80;99.90;;;;;;4902465;29;20395;-82
2021/12/31 03:06:01;;;;;;;12.55;10.63;;;12.80;99.90;;;;;;4901169;29;20415;-82
2021/12/31 03:08:31;;;;;;;13.23;11.68;;;12.80;99.90;;;;;;4901645;29;20463;-82
2021/12/31 03:10:58;;;;;;;13.35;12.00;;;12.80;99.90;;;;;;4901454;29;20953;-81
2021/12/31 03:13:24;;;;;;;12.98;11.75;;;12.80;99.90;;;;;;4900874;29;20430;-82
2021/12/31 03:15:53;;;;;;;14.68;12.43;;;12.80;99.90;;;;;;4900374;29;20392;-82
2021/12/31 03:18:19;;;;;;;13.55;12.15;;;12.80;99.90;;;;;;4900385;29;20424;-81
2021/12/31 03:21:01;;;;;;;13.35;12.10;;;12.80;99.90;;;;;;4918760;29;20396;-83
2021/12/31 03:23:29;;;;;;;13.65;12.30;;;12.80;99.90;;;;;;4900192;29;20410;-82
2021/12/31 03:25:54;;;;;;;15.18;13.60;;;12.80;99.90;;;;;;4900304;29;20817;-83
2021/12/31 03:28:21;;;;;;;14.30;13.00;;;12.80;99.90;;;;;;4899651;29;20430;-83
2021/12/31 03:30:48;;;;;;;15.10;13.50;;;12.80;99.90;;;;;;4916672;29;20387;-83
2021/12/31 03:33:14;;;;;;;14.93;13.43;;;12.80;99.90;;;;;;4918068;29;20388;-83
2021/12/31 03:35:41;;;;;;;14.90;13.47;;;12.70;99.90;;;;;;4917059;29;20388;-84
2021/12/31 03:38:07;;;;;;;15.88;14.27;;;12.70;99.90;;;;;;4916268;29;20899;-83
2021/12/31 03:40:32;;;;;;;16.35;13.93;;;12.70;99.90;;;;;;4899700;29;20395;-83
2021/12/31 03:42:58;;;;;;;15.43;13.93;;;12.70;99.90;;;;;;4915920;29;20399;-84
2021/12/31 03:45:24;;;;;;;15.07;13.47;;;12.70;99.90;;;;;;4915566;29;20977;-84
2021/12/31 03:47:50;;;;;;;16.85;13.45;;;12.70;99.90;;;;;;4915712;29;20736;-83
2021/12/31 03:50:15;;;;;;;15.73;14.23;;;12.80;99.90;;;;;;4898539;29;20392;-84
2021/12/31 03:52:41;;;;;;;16.83;15.07;;;12.80;99.90;;;;;;4915812;29;20387;-83
2021/12/31 03:55:09;;;;;;;16.50;14.80;;;12.70;99.90;;;;;;4899102;29;20792;-83
2021/12/31 03:57:36;;;;;;;16.85;15.07;;;12.60;99.90;;;;;;4899736;29;20930;-84
2021/12/31 04:00:04;;;;;;;17.90;16.02;;;12.60;99.90;;;;;;4898059;29;20475;-83
2021/12/31 04:02:30;;;;;;;17.10;15.40;;;12.50;99.90;;;;;;4915070;29;20762;-82
2021/12/31 04:04:57;;;;;;;17.77;16.02;;;12.60;99.90;;;;;;4916315;29;20463;-85
2021/12/31 04:07:23;;;;;;;17.35;15.68;;;12.60;99.90;;;;;;4900126;29;20388;-82
2021/12/31 04:09:49;;;;;;;17.25;15.55;;;12.50;99.90;;;;;;4898909;29;20380;-83
2021/12/31 04:12:15;;;;;;;16.17;14.63;;;12.60;99.90;;;;;;4898959;29;20403;-82
2021/12/31 04:14:41;;;;;;;16.07;14.47;;;12.60;99.90;;;;;;4915288;29;20766;-85
2021/12/31 04:17:06;;;;;;;15.85;14.25;;;12.60;99.90;;;;;;4915728;29;20866;-84
2021/12/31 04:19:32;;;;;;;16.10;14.32;;;12.60;99.90;;;;;;4915790;29;20404;-84
2021/12/31 04:21:58;;;;;;;15.90;14.30;;;12.50;99.90;;;;;;4899408;29;20387;-83
2021/12/31 04:24:30;;;;;;;16.15;14.57;;;12.60;99.90;;;;;;4898368;29;20396;-82
2021/12/31 04:26:56;;;;;;;15.57;13.93;;;12.50;99.90;;;;;;4915489;29;20404;-83
2021/12/31 04:29:22;;;;;;;15.20;13.50;;;12.40;99.90;;;;;;4916364;29;20384;-83
2021/12/31 04:31:47;;;;;;;15.23;13.73;;;12.40;99.90;;;;;;4916082;29;20388;-82
2021/12/31 04:34:13;;;;;;;13.77;12.47;;;12.40;99.90;;;;;;4916525;29;20454;-82
2021/12/31 04:36:39;;;;;;;12.87;11.47;;;12.40;99.90;;;;;;4898302;29;20400;-82
2021/12/31 04:39:04;;;;;;;12.68;11.48;;;12.50;99.90;;;;;;4915768;29;20763;-82
2021/12/31 04:41:30;;;;;;;12.17;11.07;;;12.50;99.90;;;;;;4901063;29;20488;-84
2021/12/31 04:43:55;;;;;;;13.10;11.60;;;12.50;99.90;;;;;;4898429;29;20376;-82
2021/12/31 04:46:21;;;;;;;12.53;11.23;;;12.50;99.90;;;;;;4899847;29;20455;-82
2021/12/31 04:48:47;;;;;;;10.80;9.70;;;12.50;99.90;;;;;;4917286;29;20447;-82
2021/12/31 04:51:12;;;;;;;10.40;9.50;;;12.50;99.90;;;;;;4899505;29;20392;-83
2021/12/31 04:53:38;;;;;;;10.47;9.47;;;12.50;99.90;;;;;;4898188;29;20391;-81
2021/12/31 04:56:03;;;;;;;10.77;9.37;;;12.50;99.90;;;;;;4915805;29;20398;-83
2021/12/31 04:58:29;;;;;;;9.23;8.37;;;12.60;99.90;;;;;;4898571;29;20490;-83
2021/12/31 05:00:55;;;;;;;9.32;8.52;;;12.60;99.90;;;;;;4917504;29;20397;-84
2021/12/31 05:03:20;;;;;;;9.37;8.47;;;12.60;99.90;;;;;;4898098;29;20400;-83
2021/12/31 05:05:46;;;;;;;9.47;8.60;;;12.60;99.90;;;;;;4916640;29;20383;-85
2021/12/31 05:08:12;;;;;;;8.85;8.05;;;12.60;99.90;;;;;;4898425;29;20396;-84
2021/12/31 05:10:38;;;;;;;8.95;8.15;;;12.60;99.90;;;;;;4898563;29;20408;-82
2021/12/31 05:13:05;;;;;;;9.20;8.33;;;12.60;99.90;;;;;;4916782;29;20392;-83
2021/12/31 05:15:37;;;;;;;9.13;8.15;;;12.60;99.90;;;;;;4919324;29;20392;-84
2021/12/31 05:18:03;;;;;;;9.07;8.25;;;12.60;99.90;;;;;;4902526;29;20559;-83
2021/12/31 05:20:29;;;;;;;9.40;8.60;;;12.60;99.90;;;;;;4900749;29;20471;-83
2021/12/31 05:22:57;;;;;;;9.33;8.10;;;12.50;99.90;;;;;;4898733;29;20395;-83
2021/12/31 05:25:23;;;;;;;8.93;8.15;;;12.50;99.90;;;;;;4913959;29;20411;-83
2021/12/31 05:27:49;;;;;;;8.88;8.02;;;12.50;99.90;;;;;;4897972;29;20395;-83
2021/12/31 05:30:15;;;;;;;8.17;7.47;;;12.50;99.90;;;;;;4898232;29;20399;-84
2021/12/31 05:32:40;;;;;;;8.10;7.33;;;12.50;99.90;;;;;;4897248;29;20434;-81
2021/12/31 05:35:07;;;;;;;7.55;6.80;;;12.50;99.90;;;;;;4897601;29;20913;-82
2021/12/31 05:37:33;;;;;;;7.22;6.53;;;12.60;99.90;;;;;;4899325;29;20403;-84
2021/12/31 05:39:58;;;;;;;7.20;6.60;;;12.50;99.90;;;;;;4898617;29;20760;-83
2021/12/31 05:42:24;;;;;;;7.43;6.40;;;12.50;99.90;;;;;;4897796;29;20408;-84
2021/12/31 05:44:49;;;;;;;6.90;6.25;;;12.50;99.90;;;;;;4915638;29;20442;-82
2021/12/31 05:47:18;;;;;;;8.17;6.83;;;12.50;99.90;;;;;;4915071;29;20398;-83
2021/12/31 05:49:45;;;;;;;7.38;6.78;;;12.50;99.90;;;;;;4914793;29;20384;-83
2021/12/31 05:52:11;;;;;;;7.22;6.53;;;12.50;99.90;;;;;;4915077;29;20454;-84
2021/12/31 05:54:37;;;;;;;7.32;6.72;;;12.60;99.90;;;;;;4898333;29;20520;-82
2021/12/31 05:57:02;;;;;;;8.25;7.45;;;12.50;99.90;;;;;;4916102;29;20380;-83
2021/12/31 05:59:28;;;;;;;7.77;7.00;;;12.50;99.90;;;;;;4901784;29;20419;-83
2021/12/31 06:01:54;;;;;;;7.50;6.82;;;12.60;99.90;;;;;;4901204;29;20411;-83
2021/12/31 06:04:22;;;;;;;7.88;7.07;;;12.60;99.90;;;;;;4926231;29;20384;-81
2021/12/31 06:06:48;;;;;;;8.05;7.25;;;12.60;99.90;;;;;;4906040;29;20400;-84
2021/12/31 06:09:14;;;;;;;8.77;7.93;;;12.60;99.90;;;;;;4899794;29;20752;-84
2021/12/31 06:11:43;;;;;;;9.10;8.30;;;12.50;99.90;;;;;;4896387;29;20739;-84
2021/12/31 06:14:10;;;;;;;9.23;8.25;;;12.50;99.90;;;;;;4914098;29;20403;-84
2021/12/31 06:16:41;;;;;;;9.80;8.65;;;12.50;99.90;;;;;;4913702;29;20450;-84
2021/12/31 06:19:11;;;;;;;9.70;8.90;;;12.50;99.90;;;;;;4896481;29;20434;-84
2021/12/31 06:21:38;;;;;;;10.45;9.43;;;12.50;99.90;;;;;;4897434;29;20411;-84
2021/12/31 06:24:04;;;;;;;9.50;8.65;;;12.50;99.90;;;;;;4915002;29;20498;-83
2021/12/31 06:26:31;;;;;;;10.77;9.77;;;12.50;99.90;;;;;;4900457;29;20751;-82
2021/12/31 06:28:57;;;;;;;10.30;9.40;;;12.50;99.90;;;;;;4900726;29;20400;-83
2021/12/31 06:31:23;;;;;;;10.90;9.80;;;12.50;99.90;;;;;;4918035;29;20398;-84
2021/12/31 06:33:50;;;;;;;9.90;8.95;;;12.50;99.90;;;;;;4899843;29;20810;-84
2021/12/31 06:36:16;;;;;;;10.45;9.50;;;12.50;99.90;;;;;;4918395;29;20379;-84
2021/12/31 06:38:43;;;;;;;11.05;9.95;;;12.50;99.90;;;;;;4901476;29;20422;-83
2021/12/31 06:41:09;;;;;;;11.73;10.65;;;12.50;99.90;;;;;;4901218;29;21138;-83
2021/12/31 06:43:34;;;;;;;11.15;10.13;;;12.40;99.90;;;;;;4917572;29;20415;-82
2021/12/31 06:46:00;;;;;;;10.10;9.25;;;12.40;99.90;;;;;;4901221;29;20396;-83
2021/12/31 06:48:26;;;;;;;11.77;10.30;;;12.50;99.90;;;;;;4900255;29;20391;-84
2021/12/31 06:50:52;;;;;;;11.75;10.70;;;12.50;99.90;;;;;;4918359;29;20402;-84
2021/12/31 06:53:17;;;;;;;11.27;10.25;;;12.50;99.90;;;;;;4901309;29;20470;-82
2021/12/31 06:55:43;;;;;;;11.53;10.50;;;12.40;99.90;;;;;;4900821;29;20428;-84
2021/12/31 06:58:09;;;;;;;11.60;10.40;;;12.50;99.90;;;;;;4900254;29;20456;-84
2021/12/31 07:00:35;;;;;;;11.00;9.88;;;12.50;99.90;;;;;;4918310;29;20762;-85
2021/12/31 07:03:19;;;;;;;11.38;10.27;;;12.50;99.90;;;;;;4901272;29;20945;-82
2021/12/31 07:05:44;;;;;;;11.60;10.60;;;12.40;99.90;;;;;;4901346;29;20759;-83
2021/12/31 07:08:11;;;;;;;11.00;9.90;;;12.50;99.90;;;;;;4920012;29;20391;-83
2021/12/31 07:10:36;;;;;;;11.63;10.52;;;12.50;99.90;;;;;;4918377;29;20384;-83
2021/12/31 07:13:10;;;;;;;11.93;10.83;;;12.50;99.90;;;;;;4900756;29;20400;-83
2021/12/31 07:15:39;;;;;;;11.60;10.50;;;12.50;99.90;;;;;;4901260;29;20404;-83
2021/12/31 07:18:05;;;;;;;9.88;8.98;;;12.50;99.90;;;;;;4900381;29;21143;-82
2021/12/31 07:20:30;;;;;;;10.18;9.18;;;12.50;99.90;;;;;;4900829;29;20404;-83
2021/12/31 07:22:56;;;;;;;10.50;9.33;;;12.50;99.90;;;;;;4899562;29;20755;-82
2021/12/31 07:25:22;;;;;;;10.40;9.35;;;12.50;99.90;;;;;;4917623;29;20489;-82
2021/12/31 07:27:50;;;;;;;10.45;9.48;;;12.60;99.90;;;;;;4899821;29;20427;-84
2021/12/31 07:30:16;;;;;;;9.82;8.93;;;12.50;99.90;;;;;;4900074;29;20771;-83
2021/12/31 07:32:42;;;;;;;9.55;8.63;;;12.50;99.90;;;;;;4918136;29;20395;-84
2021/12/31 07:35:08;;;;;;;10.55;8.65;;;12.60;99.90;;;;;;4900039;29;20399;-82
2021/12/31 07:37:33;;;;;;;9.47;8.57;;;12.60;99.90;;;;;;4901119;29;20412;-82
2021/12/31 07:40:03;;;;;;;9.33;8.43;;;12.60;99.90;;;;;;4918738;29;20442;-85
2021/12/31 07:42:29;;;;;;;9.45;8.50;;;12.50;99.90;;;;;;4918267;29;20396;-83
2021/12/31 07:44:55;;;;;;;9.43;7.93;;;12.60;99.90;;;;;;4899954;29;20419;-82
2021/12/31 07:47:21;;;;;;;8.60;7.80;;;12.60;99.90;;;;;;4901936;29;20399;-82
2021/12/31 07:49:46;;;;;;;8.17;7.37;;;12.70;99.90;;;;;;4917650;29;20406;-82
2021/12/31 07:52:13;;;;;;;8.05;7.28;;;12.70;99.90;;;;;;4900275;29;20380;-82
2021/12/31 07:54:39;;;;;;;8.00;7.30;;;12.80;99.90;;;;;;4900681;29;20407;-84
2021/12/31 07:57:05;;;;;;;7.33;6.63;;;12.80;99.90;;;;;;4916921;29;20390;-83
2021/12/31 07:59:30;;;;;;;7.70;6.90;;;12.90;99.90;;;;;;4900823;29;20418;-82
2021/12/31 08:01:56;;;;;;;7.70;6.78;;;12.90;99.90;;;;;;4917849;29;20391;-83
2021/12/31 08:04:22;;;;;;;8.53;7.03;;;12.90;99.90;;;;;;4917638;29;21140;-83
2021/12/31 08:06:47;;;;;;;9.57;7.38;;;12.90;99.90;;;;;;4917766;29;20388;-83
2021/12/31 08:09:14;;;;;;;7.90;6.90;;;12.90;99.90;;;;;;4901045;29;20384;-84
2021/12/31 08:11:41;;;;;;;9.38;6.63;;;12.80;99.90;;;;;;4900128;29;20879;-83
2021/12/31 08:14:07;;;;;;;6.90;6.20;;;12.90;99.90;;;;;;4917845;29;20434;-82
2021/12/31 08:16:33;;;;;;;8.10;6.53;;;12.90;99.90;;;;;;4917505;29;20485;-82
2021/12/31 08:18:58;;;;;;;7.10;6.40;;;12.90;99.90;;;;;;4918163;29;20906;-83
2021/12/31 08:21:24;;;;;;;8.80;6.23;;;12.90;99.90;;;;;;4917724;29;20768;-82
2021/12/31 08:23:49;;;;;;;9.07;6.45;;;12.90;99.90;;;;;;4902267;29;20396;-83
2021/12/31 08:26:15;;;;;;;6.90;5.97;;;12.90;99.90;;;;;;4918735;29;20392;-82
2021/12/31 08:28:40;;;;;;;6.15;5.47;;;12.90;99.90;;;;;;4902070;29;20384;-83
2021/12/31 08:31:06;;;;;;;6.40;5.50;;;12.90;99.90;;;;;;4919869;29;21740;-82
2021/12/31 08:33:32;;;;;;;5.75;5.07;;;12.90;99.90;;;;;;4919135;29;20403;-82
2021/12/31 08:35:58;;;;;;;5.28;4.78;;;12.80;99.90;;;;;;4900820;29;20490;-85
2021/12/31 08:38:24;;;;;;;8.07;4.93;;;12.80;99.90;;;;;;4899997;29;20432;-84
2021/12/31 08:40:51;;;;;;;7.75;4.47;;;12.80;99.90;;;;;;4900338;29;20399;-83
2021/12/31 08:43:17;;;;;;;5.55;4.25;;;12.80;99.90;;;;;;4917126;29;20602;-83
2021/12/31 08:45:43;;;;;;;4.47;4.00;;;12.90;99.90;;;;;;4899679;29;20445;-83
2021/12/31 08:48:09;;;;;;;7.10;4.50;;;13.00;99.90;;;;;;4899063;29;20403;-83
2021/12/31 08:50:34;;;;;;;6.88;4.22;;;12.90;99.90;;;;;;4917330;29;20443;-83
2021/12/31 08:53:00;;;;;;;4.43;3.47;;;12.90;99.90;;;;;;4916702;29;20390;-82
2021/12/31 08:55:28;;;;;;;8.13;3.97;;;13.10;99.90;;;;;;4917700;29;20909;-82
2021/12/31 08:57:53;;;;;;;4.60;3.38;;;13.10;99.90;;;;;;4915352;29;20388;-82
2021/12/31 09:00:19;;;;;;;7.00;3.80;;;13.10;99.90;;;;;;4899392;29;20406;-82
2021/12/31 09:02:50;;;;;;;6.60;3.80;;;13.10;99.90;;;;;;4915824;29;20447;-83
2021/12/31 09:05:16;;;;;;;5.32;3.13;;;13.10;99.90;;;;;;4898688;29;20416;-83
2021/12/31 09:07:42;;;;;;;6.38;3.65;;;13.10;99.90;;;;;;4899507;29;20400;-82
2021/12/31 09:10:08;;;;;;;6.93;3.92;;;13.10;99.90;;;;;;4915758;29;20399;-83
2021/12/31 09:12:35;;;;;;;5.95;3.40;;;13.00;99.90;;;;;;4899273;29;20399;-82
2021/12/31 09:15:00;;;;;;;4.45;3.47;;;13.00;99.90;;;;;;4915995;29;20388;-82
2021/12/31 09:17:26;;;;;;;5.63;3.50;;;13.00;99.90;;;;;;4916164;29;20450;-83
2021/12/31 09:19:52;;;;;;;4.80;3.27;;;13.00;99.90;;;;;;4914668;29;20419;-84
2021/12/31 09:22:18;;;;;;;5.60;3.55;;;13.00;99.90;;;;;;4915353;29;20410;-82
2021/12/31 09:24:44;;;;;;;4.97;3.58;;;13.00;99.90;;;;;;4915349;29;20383;-82
2021/12/31 09:27:10;;;;;;;7.10;3.40;;;13.00;99.90;;;;;;4915582;29;20439;-82
2021/12/31 09:29:36;;;;;;;5.90;3.28;;;13.10;99.90;;;;;;4913552;29;20403;-82
2021/12/31 09:32:02;;;;;;;4.40;3.33;;;13.10;99.90;;;;;;4913526;29;20418;-84
2021/12/31 09:34:29;;;;;;;6.22;3.75;;;13.20;99.90;;;;;;4906383;29;20803;-81
2021/12/31 09:36:54;;;;;;;9.07;4.70;;;13.30;99.90;;;;;;4911519;29;20420;-82
2021/12/31 09:39:20;;;;;;;6.13;3.70;;;13.20;99.90;;;;;;4914773;29;20526;-82
2021/12/31 09:41:46;;;;;;;7.65;3.40;;;13.30;99.90;;;;;;4898562;29;20420;-83
2021/12/31 09:44:14;;;;;;;6.33;3.83;;;13.20;99.90;;;;;;4915571;29;20398;-82
2021/12/31 09:46:40;;;;;;;6.32;3.67;;;13.20;99.90;;;;;;4897014;29;20410;-83
2021/12/31 09:49:06;;;;;;;4.70;3.55;;;13.30;99.90;;;;;;4915486;29;20447;-82
2021/12/31 09:51:34;;;;;;;4.47;3.23;;;13.30;99.90;;;;;;4897688;29;20792;-84
2021/12/31 09:54:00;;;;;;;6.25;3.70;;;13.30;99.90;;;;;;4897580;29;20396;-83
2021/12/31 09:56:26;;;;;;;6.82;3.60;;;13.30;99.90;;;;;;4916024;29;20843;-82
2021/12/31 09:58:52;;;;;;;5.13;3.30;;;13.40;99.90;;;;;;4899042;29;20419;-85
2021/12/31 10:01:18;;;;;;;4.65;3.42;;;13.40;99.90;;;;;;4919566;29;20909;-83
2021/12/31 10:03:57;;;;;;;5.77;3.23;;;13.40;99.90;;;;;;4902595;29;20724;-81
2021/12/31 10:06:24;;;;;;;6.35;3.70;;;13.40;99.90;;;;;;4917804;29;20407;-82
2021/12/31 10:08:51;;;;;;;5.80;3.73;;;13.30;99.90;;;;;;4902991;29;20458;-84
2021/12/31 10:11:20;;;;;;;6.05;3.50;;;13.30;99.90;;;;;;4918853;29;21177;-81
2021/12/31 10:13:56;;;;;;;5.00;3.20;;;13.40;99.90;;;;;;4900899;29;20395;-82
2021/12/31 10:16:28;;;;;;;4.18;3.00;;;13.40;99.90;;;;;;4916928;29;20403;-82
2021/12/31 10:19:19;;;;;;;4.10;2.80;;;13.40;99.90;;;;;;4918637;29;20774;-82
2021/12/31 10:21:49;;;;;;;6.95;2.90;;;13.40;99.90;;;;;;4901998;29;20953;-81
2021/12/31 10:24:37;;;;;;;6.10;3.00;;;13.40;99.90;;;;;;4901625;29;20922;-83
2021/12/31 10:27:23;;;;;;;4.40;2.90;;;13.30;99.90;;;;;;4920237;29;20446;-82
2021/12/31 10:29:57;;;;;;;4.30;2.90;;;13.40;99.90;;;;;;4899870;29;20980;-83
2021/12/31 10:32:26;;;;;;;4.03;2.30;;;13.40;99.90;;;;;;4900057;29;20388;-84
2021/12/31 10:34:52;;;;;;;5.68;3.42;;;13.40;99.90;;;;;;4905880;29;20742;-82
2021/12/31 10:37:19;;;;;;;4.23;2.93;;;13.40;99.90;;;;;;4901499;29;20391;-86
2021/12/31 10:39:53;;;;;;;4.22;2.63;;;13.40;99.90;;;;;;4922636;29;20411;-83
2021/12/31 10:42:19;;;;;;;6.47;3.77;;;13.40;99.90;;;;;;4913585;29;20441;-81
2021/12/31 10:44:51;;;;;;;4.72;3.78;;;13.50;99.90;;;;;;4913655;29;20522;-81
2021/12/31 10:47:38;;;;;;;5.72;3.40;;;13.50;99.90;;;;;;4908281;29;20434;-85
2021/12/31 10:50:04;;;;;;;3.80;2.10;;;13.50;99.90;;;;;;4900815;29;20419;-82
2021/12/31 10:52:55;;;;;;;2.97;2.10;;;13.60;99.90;;;;;;4918406;29;20476;-83
2021/12/31 10:55:29;;;;;;;4.55;2.00;;;13.60;99.90;;;;;;4918227;29;20446;-83
2021/12/31 10:57:58;;;;;;;2.88;1.80;;;13.60;99.90;;;;;;4899988;29;20899;-84
2021/12/31 11:00:27;;;;;;;3.97;1.95;;;13.60;99.90;;;;;;4916835;29;20435;-84
2021/12/31 11:02:53;;;;;;;3.25;1.80;;;13.60;99.90;;;;;;4895400;29;20476;-82
2021/12/31 11:05:21;;;;;;;3.70;1.80;;;13.70;99.90;;;;;;4882453;29;20500;-84
2021/12/31 11:07:48;;;;;;;3.33;1.90;;;13.60;99.90;;;;;;4881531;29;20386;-82
2021/12/31 11:10:15;;;;;;;2.90;1.60;;;13.70;99.90;;;;;;4880922;29;20388;-85
2021/12/31 11:12:46;;;;;;;4.77;2.00;;;13.60;99.90;;;;;;4895536;29;20425;-83
2021/12/31 11:15:12;;;;;;;2.85;1.70;;;13.70;99.90;;;;;;4900436;29;21062;-82
2021/12/31 11:17:38;;;;;;;3.75;1.60;;;13.70;99.90;;;;;;4917327;29;20971;-82
2021/12/31 11:20:05;;;;;;;2.80;1.73;;;13.70;99.90;;;;;;4917683;29;20502;-80
2021/12/31 11:22:32;;;;;;;2.72;1.67;;;13.70;99.90;;;;;;4900779;29;20411;-82
2021/12/31 11:25:24;;;;;;;4.53;2.10;;;13.70;99.90;;;;;;4899770;29;20471;-81
2021/12/31 11:27:52;;;;;;;2.55;1.63;;;13.70;99.90;;;;;;4917836;29;20950;-83
2021/12/31 11:30:38;;;;;;;3.85;1.80;;;13.70;99.90;;;;;;4899597;29;20391;-82
2021/12/31 11:33:17;;;;;;;3.63;1.60;;;13.80;99.90;;;;;;4898091;29;20427;-84
2021/12/31 11:35:58;;;;;;;2.40;1.70;;;13.70;99.90;;;;;;4916791;29;20407;-84
2021/12/31 11:38:24;;;;;;;3.55;1.98;;;13.70;99.90;;;;;;4901261;29;20411;-83
2021/12/31 11:41:20;;;;;;;3.50;1.90;;;13.60;99.90;;;;;;4916665;29;20399;-84
2021/12/31 11:44:08;;;;;;;2.30;2.00;;;13.70;99.90;;;;;;4915953;29;20388;-82
2021/12/31 11:46:36;;;;;;;3.42;2.10;;;13.70;99.90;;;;;;4917337;29;20876;-83
2021/12/31 11:49:07;;;;;;;5.10;2.23;;;13.60;99.90;;;;;;4916384;29;20396;-84
2021/12/31 11:51:35;;;;;;;3.53;2.00;;;13.60;99.90;;;;;;4915811;29;20388;-83
2021/12/31 11:54:01;;;;;;;3.35;1.98;;;13.60;99.90;;;;;;4916314;29;20866;-85
2021/12/31 11:56:33;;;;;;;3.70;1.90;;;13.60;99.90;;;;;;4915681;29;20439;-82
2021/12/31 11:59:08;;;;;;;3.15;1.90;;;13.60;99.90;;;;;;4899215;29;20649;-83
2021/12/31 12:01:36;;;;;;;3.95;2.03;;;13.70;99.90;;;;;;4899494;29;20970;-82
2021/12/31 12:04:28;;;;;;;3.88;2.00;;;13.70;99.90;;;;;;4916107;29;20393;-84
2021/12/31 12:07:34;;;;;;;3.42;2.15;;;13.70;99.90;;;;;;4898621;29;20471;-84
2021/12/31 12:10:00;;;;;;;3.50;2.10;;;13.80;99.90;;;;;;4899783;29;20917;-82
2021/12/31 12:12:31;;;;;;;2.80;2.17;;;13.80;99.90;;;;;;4916150;29;20466;-83
2021/12/31 12:14:58;;;;;;;3.22;2.10;;;13.80;99.90;;;;;;4915810;29;20883;-84
2021/12/31 12:17:30;;;;;;;4.57;2.22;;;13.90;99.90;;;;;;4883200;29;20994;-84
2021/12/31 12:20:01;;;;;;;3.40;2.10;;;13.90;99.90;;;;;;4916034;29;20446;-83
2021/12/31 12:22:28;;;;;;;3.72;1.98;;;13.90;99.90;;;;;;4898256;29;20814;-83
2021/12/31 12:24:56;;;;;;;3.03;1.92;;;13.90;99.90;;;;;;4914621;29;20399;-83
2021/12/31 12:27:24;;;;;;;4.07;1.95;;;13.80;99.90;;;;;;4915778;29;20398;-84
2021/12/31 12:29:51;;;;;;;2.42;1.63;;;13.90;99.90;;;;;;4894528;29;20404;-83
2021/12/31 12:32:29;;;;;;;4.00;1.73;;;13.80;99.90;;;;;;4899475;29;20400;-82
2021/12/31 12:34:54;;;;;;;2.25;1.60;;;13.90;99.90;;;;;;4914581;29;20878;-84
2021/12/31 12:37:27;;;;;;;2.97;1.70;;;13.90;99.90;;;;;;4915464;29;20479;-81
2021/12/31 12:40:01;;;;;;;2.13;1.60;;;13.80;99.90;;;;;;4897626;29;20415;-81
2021/12/31 12:42:27;;;;;;;3.55;1.80;;;13.90;99.90;;;;;;4913685;29;20522;-83
2021/12/31 12:45:06;;;;;;;2.75;1.85;;;13.90;99.90;;;;;;4897367;29;20498;-83